createdAt,value
2017-11-08T00:00:07.236Z,19.4
2017-11-08T00:02:05.026Z,19.3
2017-11-08T00:04:04.740Z,19.4
2017-11-08T00:06:13.097Z,19.3
2017-11-08T00:08:09.881Z,19.3
2017-11-08T00:10:05.636Z,19.4
2017-11-08T00:12:07.863Z,19.3
2017-11-08T00:14:08.125Z,19.4
2017-11-08T00:16:04.832Z,19.3
2017-11-08T00:18:08.004Z,19.3
2017-11-08T00:20:07.273Z,19.3
2017-11-08T00:22:17.649Z,19.3
2017-11-08T00:24:05.513Z,19.3
2017-11-08T00:26:07.794Z,19.3
2017-11-08T00:28:05.509Z,19.3
2017-11-08T00:30:04.737Z,19.3
2017-11-08T00:32:07.983Z,19.3
2017-11-08T00:34:04.742Z,19.3
2017-11-08T00:36:05.472Z,19.3
2017-11-08T00:38:05.226Z,19.3
2017-11-08T00:40:04.958Z,19.3
2017-11-08T00:42:04.639Z,19.3
2017-11-08T00:44:05.455Z,19.3
2017-11-08T00:46:05.199Z,19.3
2017-11-08T00:48:04.949Z,19.3
2017-11-08T00:50:04.657Z,19.3
2017-11-08T00:52:05.364Z,19.3
2017-11-08T00:54:05.073Z,19.3
2017-11-08T00:56:07.881Z,19.3
2017-11-08T00:58:10.672Z,19.2
2017-11-08T01:00:05.378Z,19.2
2017-11-08T01:02:04.769Z,19.3
2017-11-08T01:04:04.781Z,19.3
2017-11-08T01:06:04.855Z,19.3
2017-11-08T01:08:05.697Z,19.2
2017-11-08T01:10:05.183Z,19.3
2017-11-08T01:12:04.900Z,19.2
2017-11-08T01:14:08.190Z,19.2
2017-11-08T01:16:05.499Z,19.2
2017-11-08T01:18:05.015Z,19.3
2017-11-08T01:20:05.197Z,19.3
2017-11-08T01:22:04.938Z,19.3
2017-11-08T01:24:07.398Z,19.2
2017-11-08T01:26:05.183Z,19.2
2017-11-08T01:28:07.792Z,19.2
2017-11-08T01:30:04.697Z,19.2
2017-11-08T01:32:04.807Z,19.2
2017-11-08T01:34:07.628Z,19.3
2017-11-08T01:36:04.752Z,19.2
2017-11-08T01:38:07.925Z,19.2
2017-11-08T01:40:04.952Z,19.2
2017-11-08T01:42:04.778Z,19.2
2017-11-08T01:44:07.886Z,19.2
2017-11-08T01:46:05.110Z,19.2
2017-11-08T01:48:05.010Z,19.2
2017-11-08T01:50:05.551Z,19.2
2017-11-08T01:52:08.118Z,19.2
2017-11-08T01:54:05.072Z,19.2
2017-11-08T01:56:05.687Z,19.2
2017-11-08T01:58:04.909Z,19.2
2017-11-08T02:00:05.137Z,19.2
2017-11-08T02:02:05.304Z,19.2
2017-11-08T02:04:08.175Z,19.2
2017-11-08T02:06:05.559Z,19.2
2017-11-08T02:08:05.609Z,19.2
2017-11-08T02:10:05.652Z,19.2
2017-11-08T02:12:04.965Z,19.2
2017-11-08T02:14:05.429Z,19.2
2017-11-08T02:16:05.529Z,19.2
2017-11-08T02:18:04.795Z,19.2
2017-11-08T02:20:04.963Z,19.2
2017-11-08T02:22:07.621Z,19.2
2017-11-08T02:24:05.789Z,19.2
2017-11-08T02:26:05.157Z,19.2
2017-11-08T02:28:05.592Z,19.2
2017-11-08T02:30:05.056Z,19.2
2017-11-08T02:32:05.161Z,19.1
2017-11-08T02:34:05.332Z,19.2
2017-11-08T02:36:05.119Z,19.2
2017-11-08T02:38:05.308Z,19.2
2017-11-08T02:40:05.149Z,19.2
2017-11-08T02:42:04.987Z,19.2
2017-11-08T02:44:05.174Z,19.2
2017-11-08T02:46:10.483Z,19.2
2017-11-08T02:48:05.868Z,19.1
2017-11-08T02:50:05.131Z,19.2
2017-11-08T02:52:10.552Z,19.2
2017-11-08T02:54:05.051Z,19.2
2017-11-08T02:56:05.500Z,19.2
2017-11-08T02:58:05.414Z,19.1
2017-11-08T03:00:05.597Z,19.1
2017-11-08T03:02:10.552Z,19.1
2017-11-08T03:04:05.683Z,19.1
2017-11-08T03:06:05.491Z,19.1
2017-11-08T03:08:05.419Z,19.1
2017-11-08T03:10:05.359Z,19.1
2017-11-08T03:12:08.014Z,19.1
2017-11-08T03:14:07.731Z,19.1
2017-11-08T03:16:08.443Z,19.1
2017-11-08T03:18:04.986Z,19.1
2017-11-08T03:20:10.247Z,19.1
2017-11-08T03:22:05.401Z,19.1
2017-11-08T03:24:07.798Z,19.1
2017-11-08T03:26:04.944Z,19.1
2017-11-08T03:28:15.046Z,19.1
2017-11-08T03:30:07.713Z,19.1
2017-11-08T03:32:04.751Z,19.1
2017-11-08T03:34:05.017Z,19.1
2017-11-08T03:36:05.581Z,19.1
2017-11-08T03:38:07.815Z,19.1
2017-11-08T03:40:05.669Z,19.1
2017-11-08T03:42:11.227Z,19.1
2017-11-08T03:44:04.875Z,19.1
2017-11-08T03:46:04.777Z,19.1
2017-11-08T03:48:05.688Z,19.1
2017-11-08T03:50:05.005Z,19.1
2017-11-08T03:52:05.134Z,19.1
2017-11-08T03:54:05.561Z,19.1
2017-11-08T03:56:05.712Z,19.1
2017-11-08T03:58:05.329Z,19.1
2017-11-08T04:00:07.974Z,19.1
2017-11-08T04:02:05.201Z,19.1
2017-11-08T04:04:04.914Z,19.1
2017-11-08T04:06:07.628Z,19.1
2017-11-08T04:08:08.403Z,19.1
2017-11-08T04:10:05.107Z,19.1
2017-11-08T04:12:05.454Z,19.1
2017-11-08T04:14:05.625Z,19.1
2017-11-08T04:16:04.864Z,19.1
2017-11-08T04:18:04.777Z,19.1
2017-11-08T04:20:07.309Z,19.1
2017-11-08T04:22:05.423Z,19.1
2017-11-08T04:24:05.755Z,19.1
2017-11-08T04:26:05.024Z,19.1
2017-11-08T04:28:07.745Z,19.1
2017-11-08T04:30:05.107Z,19.1
2017-11-08T04:32:07.809Z,19
2017-11-08T04:34:08.096Z,19
2017-11-08T04:36:05.207Z,19
2017-11-08T04:38:12.951Z,19
2017-11-08T04:40:07.966Z,19.1
2017-11-08T04:42:05.262Z,19
2017-11-08T04:44:06.700Z,19
2017-11-08T04:46:05.366Z,19
2017-11-08T04:48:07.785Z,19
2017-11-08T04:50:05.040Z,19
2017-11-08T04:52:05.202Z,19
2017-11-08T04:54:05.437Z,19
2017-11-08T04:56:09.964Z,19
2017-11-08T04:58:07.581Z,19
2017-11-08T05:00:05.694Z,19
2017-11-08T05:02:04.932Z,19
2017-11-08T05:04:06.416Z,19
2017-11-08T05:06:05.440Z,19
2017-11-08T05:08:05.507Z,19
2017-11-08T05:10:05.510Z,19
2017-11-08T05:12:04.717Z,19
2017-11-08T05:14:05.583Z,19
2017-11-08T05:16:04.801Z,19
2017-11-08T05:18:07.249Z,19
2017-11-08T05:20:05.198Z,19
2017-11-08T05:22:05.149Z,19
2017-11-08T05:24:07.816Z,19
2017-11-08T05:26:07.527Z,19
2017-11-08T05:28:05.339Z,19
2017-11-08T05:30:05.542Z,19
2017-11-08T05:32:04.841Z,19
2017-11-08T05:34:05.521Z,19
2017-11-08T05:36:05.124Z,19
2017-11-08T05:38:05.768Z,19
2017-11-08T05:40:04.822Z,19
2017-11-08T05:42:05.281Z,19
2017-11-08T05:44:10.569Z,19
2017-11-08T05:46:04.955Z,19
2017-11-08T05:48:05.409Z,19
2017-11-08T05:50:07.520Z,19
2017-11-08T05:52:05.172Z,19
2017-11-08T05:54:05.478Z,19
2017-11-08T05:56:09.774Z,19
2017-11-08T05:58:04.903Z,19
2017-11-08T06:00:05.222Z,18.9
2017-11-08T06:02:07.884Z,19
2017-11-08T06:04:05.590Z,19
2017-11-08T06:06:05.734Z,19
2017-11-08T06:08:07.468Z,19
2017-11-08T06:10:05.097Z,19
2017-11-08T06:12:07.847Z,19
2017-11-08T06:14:04.955Z,19
2017-11-08T06:16:05.046Z,19
2017-11-08T06:18:05.135Z,19
2017-11-08T06:20:05.101Z,19
2017-11-08T06:22:04.903Z,19
2017-11-08T06:24:09.969Z,18.9
2017-11-08T06:26:04.945Z,19
2017-11-08T06:28:05.067Z,18.9
2017-11-08T06:30:04.853Z,18.9
2017-11-08T06:32:05.746Z,18.9
2017-11-08T06:34:06.492Z,18.9
2017-11-08T06:36:05.263Z,18.9
2017-11-08T06:38:05.372Z,18.9
2017-11-08T06:40:07.991Z,18.9
2017-11-08T06:42:07.774Z,18.9
2017-11-08T06:44:04.893Z,18.9
2017-11-08T06:46:05.035Z,18.9
2017-11-08T06:48:05.298Z,18.9
2017-11-08T06:50:05.503Z,18.9
2017-11-08T06:52:10.748Z,18.9
2017-11-08T06:54:04.976Z,18.9
2017-11-08T06:56:05.211Z,18.9
2017-11-08T06:58:05.430Z,18.9
2017-11-08T07:00:07.734Z,19
2017-11-08T07:02:05.714Z,18.9
2017-11-08T07:04:04.948Z,18.9
2017-11-08T07:06:05.008Z,18.9
2017-11-08T07:08:07.825Z,18.9
2017-11-08T07:10:05.038Z,18.9
2017-11-08T07:12:05.429Z,18.9
2017-11-08T07:14:04.732Z,18.9
2017-11-08T07:16:04.890Z,18.9
2017-11-08T07:18:05.339Z,18.9
2017-11-08T07:20:10.754Z,18.9
2017-11-08T07:22:05.232Z,18.9
2017-11-08T07:24:05.416Z,18.9
2017-11-08T07:26:05.505Z,18.9
2017-11-08T07:28:08.176Z,18.9
2017-11-08T07:30:05.356Z,18.9
2017-11-08T07:32:05.579Z,18.9
2017-11-08T07:34:04.686Z,18.9
2017-11-08T07:36:07.437Z,18.9
2017-11-08T07:38:05.490Z,18.9
2017-11-08T07:40:08.170Z,18.9
2017-11-08T07:42:10.872Z,18.9
2017-11-08T07:44:09.796Z,18.9
2017-11-08T07:46:04.778Z,18.9
2017-11-08T07:48:04.939Z,18.9
2017-11-08T07:50:07.619Z,18.9
2017-11-08T07:52:09.822Z,18.9
2017-11-08T07:54:04.960Z,18.9
2017-11-08T07:56:07.858Z,18.9
2017-11-08T07:58:05.306Z,18.9
2017-11-08T08:00:05.887Z,18.9
2017-11-08T08:02:05.068Z,18.9
2017-11-08T08:04:09.913Z,18.9
2017-11-08T08:06:05.031Z,18.9
2017-11-08T08:08:05.353Z,18.9
2017-11-08T08:10:05.665Z,18.9
2017-11-08T08:12:07.441Z,18.9
2017-11-08T08:14:05.617Z,18.9
2017-11-08T08:16:04.965Z,18.8
2017-11-08T08:18:05.264Z,18.8
2017-11-08T08:20:04.851Z,18.9
2017-11-08T08:22:05.144Z,18.9
2017-11-08T08:24:10.168Z,18.8
2017-11-08T08:26:04.952Z,18.8
2017-11-08T08:28:04.747Z,18.8
2017-11-08T08:30:05.155Z,18.8
2017-11-08T08:32:05.389Z,18.8
2017-11-08T08:34:05.210Z,18.8
2017-11-08T08:36:05.046Z,18.8
2017-11-08T08:38:04.946Z,18.8
2017-11-08T08:40:04.981Z,18.9
2017-11-08T08:42:05.402Z,18.8
2017-11-08T08:44:10.691Z,18.8
2017-11-08T08:46:05.036Z,18.8
2017-11-08T08:48:05.611Z,18.8
2017-11-08T08:50:05.448Z,18.8
2017-11-08T08:52:10.517Z,18.8
2017-11-08T08:54:05.951Z,18.8
2017-11-08T08:56:05.154Z,18.8
2017-11-08T08:58:05.514Z,18.8
2017-11-08T09:00:04.807Z,18.8
2017-11-08T09:02:05.767Z,18.8
2017-11-08T09:04:04.826Z,18.8
2017-11-08T09:06:04.830Z,18.8
2017-11-08T09:08:04.825Z,18.8
2017-11-08T09:10:04.734Z,18.8
2017-11-08T09:12:04.876Z,18.8
2017-11-08T09:14:04.784Z,18.8
2017-11-08T09:16:05.067Z,18.8
2017-11-08T09:18:10.442Z,18.8
2017-11-08T09:20:05.530Z,18.8
2017-11-08T09:22:05.109Z,18.8
2017-11-08T09:24:05.350Z,18.8
2017-11-08T09:26:08.022Z,18.8
2017-11-08T09:28:05.246Z,18.8
2017-11-08T09:30:05.225Z,18.8
2017-11-08T09:32:05.132Z,18.8
2017-11-08T09:34:07.728Z,18.8
2017-11-08T09:36:04.945Z,18.8
2017-11-08T09:38:05.268Z,18.8
2017-11-08T09:40:05.381Z,18.8
2017-11-08T09:42:05.813Z,18.8
2017-11-08T09:44:05.230Z,18.8
2017-11-08T09:46:04.816Z,18.8
2017-11-08T09:48:07.516Z,18.8
2017-11-08T09:50:05.684Z,18.8
2017-11-08T09:52:05.642Z,18.8
2017-11-08T09:54:04.965Z,18.8
2017-11-08T09:56:05.126Z,18.8
2017-11-08T09:58:06.333Z,18.8
2017-11-08T10:00:05.119Z,18.8
2017-11-08T10:02:06.041Z,18.8
2017-11-08T10:04:05.510Z,18.8
2017-11-08T10:06:04.953Z,18.8
2017-11-08T10:08:05.528Z,18.8
2017-11-08T10:10:05.186Z,18.8
2017-11-08T10:12:04.988Z,18.8
2017-11-08T10:14:07.732Z,18.8
2017-11-08T10:16:04.985Z,18.8
2017-11-08T10:18:05.354Z,18.8
2017-11-08T10:20:04.795Z,18.8
2017-11-08T10:22:04.970Z,18.8
2017-11-08T10:24:05.183Z,18.8
2017-11-08T10:26:05.386Z,18.8
2017-11-08T10:28:05.739Z,18.8
2017-11-08T10:30:05.254Z,18.8
2017-11-08T10:32:05.468Z,18.8
2017-11-08T10:34:05.157Z,18.8
2017-11-08T10:36:08.111Z,18.8
2017-11-08T10:38:08.263Z,18.8
2017-11-08T10:40:06.240Z,18.8
2017-11-08T10:42:05.500Z,18.8
2017-11-08T10:44:05.588Z,18.8
2017-11-08T10:46:07.420Z,18.8
2017-11-08T10:48:05.656Z,18.8
2017-11-08T10:50:04.860Z,18.8
2017-11-08T10:52:05.094Z,18.8
2017-11-08T10:54:05.227Z,18.8
2017-11-08T10:56:05.583Z,18.8
2017-11-08T10:58:04.727Z,18.8
2017-11-08T11:00:05.526Z,18.8
2017-11-08T11:02:04.749Z,18.8
2017-11-08T11:04:11.773Z,18.8
2017-11-08T11:06:15.684Z,18.8
2017-11-08T11:08:07.810Z,18.8
2017-11-08T11:10:08.010Z,18.8
2017-11-08T11:12:05.051Z,18.8
2017-11-08T11:14:05.239Z,18.8
2017-11-08T11:16:05.080Z,18.8
2017-11-08T11:18:05.450Z,18.8
2017-11-08T11:20:08.198Z,18.8
2017-11-08T11:22:07.920Z,18.8
2017-11-08T11:24:05.074Z,18.8
2017-11-08T11:26:05.133Z,18.8
2017-11-08T11:28:05.515Z,18.8
2017-11-08T11:30:07.374Z,18.8
2017-11-08T11:32:04.886Z,18.8
2017-11-08T11:34:05.053Z,18.8
2017-11-08T11:36:04.794Z,18.8
2017-11-08T11:38:15.032Z,18.8
2017-11-08T11:40:07.521Z,18.8
2017-11-08T11:42:05.653Z,18.8
2017-11-08T11:44:04.969Z,18.8
2017-11-08T11:46:05.400Z,18.8
2017-11-08T11:48:05.460Z,18.8
2017-11-08T11:50:05.106Z,18.8
2017-11-08T11:52:07.799Z,18.8
2017-11-08T11:54:04.969Z,18.8
2017-11-08T11:56:07.661Z,18.8
2017-11-08T11:58:05.249Z,18.8
2017-11-08T12:00:05.387Z,18.8
2017-11-08T12:02:05.696Z,18.8
2017-11-08T12:04:05.454Z,18.8
2017-11-08T12:06:05.128Z,18.8
2017-11-08T12:08:05.159Z,18.8
2017-11-08T12:10:05.295Z,18.8
2017-11-08T12:12:05.370Z,18.8
2017-11-08T12:14:05.485Z,18.8
2017-11-08T12:16:04.883Z,18.8
2017-11-08T12:18:05.823Z,18.8
2017-11-08T12:20:04.940Z,18.8
2017-11-08T12:22:05.073Z,18.8
2017-11-08T12:24:11.486Z,18.8
2017-11-08T12:26:04.817Z,18.8
2017-11-08T12:28:05.096Z,18.8
2017-11-08T12:30:11.271Z,18.8
2017-11-08T12:32:07.855Z,18.8
2017-11-08T12:34:05.095Z,18.8
2017-11-08T12:36:05.311Z,18.8
2017-11-08T12:38:07.927Z,18.9
2017-11-08T12:40:06.191Z,18.9
2017-11-08T12:42:05.335Z,18.9
2017-11-08T12:44:05.452Z,19
2017-11-08T12:46:05.499Z,18.9
2017-11-08T12:48:05.280Z,18.9
2017-11-08T12:50:07.533Z,18.9
2017-11-08T12:52:04.850Z,18.9
2017-11-08T12:54:08.111Z,18.9
2017-11-08T12:56:04.942Z,18.9
2017-11-08T12:58:07.225Z,18.9
2017-11-08T13:00:04.976Z,18.9
2017-11-08T13:02:04.823Z,18.9
2017-11-08T13:04:05.377Z,18.9
2017-11-08T13:06:04.845Z,19
2017-11-08T13:08:05.111Z,19
2017-11-08T13:10:04.870Z,19.1
2017-11-08T13:12:08.303Z,19.2
2017-11-08T13:14:05.092Z,19.2
2017-11-08T13:16:04.884Z,19.3
2017-11-08T13:18:04.866Z,19.4
2017-11-08T13:20:05.572Z,19.5
2017-11-08T13:22:05.947Z,19.7
2017-11-08T13:24:10.331Z,19.8
2017-11-08T13:26:05.469Z,19.8
2017-11-08T13:28:04.801Z,19.9
2017-11-08T13:30:05.678Z,20
2017-11-08T13:32:05.614Z,20.1
2017-11-08T13:34:05.373Z,20.2
2017-11-08T13:36:05.255Z,20.3
2017-11-08T13:38:10.589Z,20.5
2017-11-08T13:40:05.330Z,20.5
2017-11-08T13:42:07.581Z,20.8
2017-11-08T13:44:08.047Z,20.9
2017-11-08T13:46:04.762Z,20.9
2017-11-08T13:48:05.291Z,20.9
2017-11-08T13:50:05.060Z,21.1
2017-11-08T13:52:10.323Z,20.9
2017-11-08T13:54:05.199Z,20.9
2017-11-08T13:56:04.953Z,20.8
2017-11-08T13:58:04.718Z,20.8
2017-11-08T14:00:05.785Z,20.8
2017-11-08T14:02:05.475Z,20.9
2017-11-08T14:04:10.257Z,21
2017-11-08T14:06:04.979Z,21
2017-11-08T14:08:04.745Z,21.1
2017-11-08T14:10:05.478Z,21.1
2017-11-08T14:12:10.241Z,21.2
2017-11-08T14:14:05.003Z,21.2
2017-11-08T14:16:04.757Z,21.2
2017-11-08T14:18:04.744Z,21.2
2017-11-08T14:20:04.990Z,21.2
2017-11-08T14:22:04.676Z,21.3
2017-11-08T14:24:13.066Z,21.3
2017-11-08T14:26:10.550Z,21.3
2017-11-08T14:28:05.170Z,21.3
2017-11-08T14:30:07.829Z,21.3
2017-11-08T14:32:05.871Z,21.3
2017-11-08T14:34:05.883Z,21.4
2017-11-08T14:36:13.236Z,21.4
2017-11-08T14:38:04.950Z,21.4
2017-11-08T14:40:04.669Z,21.3
2017-11-08T14:42:05.669Z,21.2
2017-11-08T14:44:05.455Z,21.1
2017-11-08T14:46:05.365Z,21.2
2017-11-08T14:48:10.157Z,21.2
2017-11-08T14:50:04.879Z,21.2
2017-11-08T14:52:07.397Z,21.3
2017-11-08T14:54:05.447Z,21.3
2017-11-08T14:56:05.240Z,21.3
2017-11-08T14:58:05.123Z,21.4
2017-11-08T15:00:05.016Z,21.4
2017-11-08T15:02:07.561Z,21.5
2017-11-08T15:04:05.642Z,21.5
2017-11-08T15:06:04.953Z,21.5
2017-11-08T15:08:05.216Z,21.5
2017-11-08T15:10:04.766Z,21.5
2017-11-08T15:12:04.712Z,21.4
2017-11-08T15:14:04.672Z,21.3
2017-11-08T15:16:04.677Z,21.3
2017-11-08T15:18:10.841Z,21.3
2017-11-08T15:20:05.729Z,21.3
2017-11-08T15:22:04.713Z,21.3
2017-11-08T15:24:05.705Z,21.2
2017-11-08T15:26:04.753Z,21.3
2017-11-08T15:28:10.701Z,21.3
2017-11-08T15:30:10.496Z,21.2
2017-11-08T15:32:04.730Z,21.2
2017-11-08T15:34:04.697Z,21.3
2017-11-08T15:36:05.570Z,21.3
2017-11-08T15:38:05.548Z,21.3
2017-11-08T15:40:05.311Z,21.3
2017-11-08T15:42:05.284Z,21.3
2017-11-08T15:44:05.279Z,21.3
2017-11-08T15:46:05.009Z,21.3
2017-11-08T15:48:04.805Z,21.3
2017-11-08T15:50:08.049Z,21.3
2017-11-08T15:52:04.985Z,21.3
2017-11-08T15:54:04.699Z,21.3
2017-11-08T15:56:07.180Z,21.3
2017-11-08T15:58:09.979Z,21.3
2017-11-08T16:00:07.365Z,21.3
2017-11-08T16:02:05.132Z,21.3
2017-11-08T16:04:04.856Z,21.3
2017-11-08T16:06:07.167Z,21.3
2017-11-08T16:08:04.883Z,21.3
2017-11-08T16:10:07.187Z,21.3
2017-11-08T16:12:04.976Z,21.3
2017-11-08T16:14:04.756Z,21.3
2017-11-08T16:16:05.565Z,21.4
2017-11-08T16:18:05.597Z,21.4
2017-11-08T16:20:05.474Z,21.4
2017-11-08T16:22:05.311Z,21.4
2017-11-08T16:24:04.861Z,21.3
2017-11-08T16:26:05.145Z,21.4
2017-11-08T16:28:04.929Z,21.3
2017-11-08T16:30:10.332Z,21.4
2017-11-08T16:32:04.671Z,21.4
2017-11-08T16:34:05.014Z,21.4
2017-11-08T16:36:04.895Z,21.4
2017-11-08T16:38:05.629Z,21.4
2017-11-08T16:40:05.449Z,21.5
2017-11-08T16:42:05.232Z,21.4
2017-11-08T16:44:05.260Z,21.4
2017-11-08T16:46:05.021Z,21.4
2017-11-08T16:48:07.510Z,21.4
2017-11-08T16:50:07.810Z,21.4
2017-11-08T16:52:05.535Z,21.4
2017-11-08T16:54:04.768Z,21.5
2017-11-08T16:56:05.052Z,21.5
2017-11-08T16:58:04.833Z,21.4
2017-11-08T17:00:05.601Z,21.5
2017-11-08T17:02:05.370Z,21.5
2017-11-08T17:04:07.819Z,21.6
2017-11-08T17:06:10.142Z,21.6
2017-11-08T17:08:04.894Z,21.6
2017-11-08T17:10:05.681Z,21.6
2017-11-08T17:12:07.327Z,21.6
2017-11-08T17:14:05.028Z,21.6
2017-11-08T17:16:05.553Z,21.6
2017-11-08T17:18:05.484Z,21.6
2017-11-08T17:20:05.197Z,21.6
2017-11-08T17:22:07.989Z,21.7
2017-11-08T17:24:07.258Z,21.7
2017-11-08T17:26:04.926Z,21.7
2017-11-08T17:28:04.748Z,21.7
2017-11-08T17:30:13.138Z,21.7
2017-11-08T17:32:07.412Z,21.7
2017-11-08T17:34:09.741Z,21.7
2017-11-08T17:36:10.549Z,21.7
2017-11-08T17:38:05.356Z,21.7
2017-11-08T17:40:05.163Z,21.7
2017-11-08T17:42:05.030Z,21.7
2017-11-08T17:44:05.372Z,21.7
2017-11-08T17:46:05.083Z,21.7
2017-11-08T17:48:04.939Z,21.6
2017-11-08T17:50:04.712Z,21.7
2017-11-08T17:52:04.617Z,21.6
2017-11-08T17:54:05.337Z,21.7
2017-11-08T17:56:05.160Z,21.6
2017-11-08T17:58:04.922Z,21.6
2017-11-08T18:00:04.789Z,21.6
2017-11-08T18:02:10.145Z,21.6
2017-11-08T18:04:04.824Z,21.6
2017-11-08T18:06:05.531Z,21.6
2017-11-08T18:08:04.755Z,21.6
2017-11-08T18:10:05.456Z,21.6
2017-11-08T18:12:05.217Z,21.6
2017-11-08T18:14:04.972Z,21.6
2017-11-08T18:16:04.859Z,21.6
2017-11-08T18:18:07.422Z,21.6
2017-11-08T18:20:07.179Z,21.6
2017-11-08T18:22:05.446Z,21.6
2017-11-08T18:24:05.279Z,21.6
2017-11-08T18:26:07.577Z,21.6
2017-11-08T18:28:04.857Z,21.6
2017-11-08T18:30:05.636Z,21.6
2017-11-08T18:32:05.554Z,21.6
2017-11-08T18:34:05.294Z,21.6
2017-11-08T18:36:15.219Z,21.6
2017-11-08T18:38:04.928Z,21.6
2017-11-08T18:40:04.742Z,21.6
2017-11-08T18:42:10.505Z,21.6
2017-11-08T18:44:12.806Z,21.6
2017-11-08T18:46:05.536Z,21.6
2017-11-08T18:48:05.401Z,21.6
2017-11-08T18:50:05.149Z,21.6
2017-11-08T18:52:04.893Z,21.6
2017-11-08T18:54:05.190Z,21.6
2017-11-08T18:56:15.018Z,21.6
2017-11-08T18:58:04.770Z,21.6
2017-11-08T19:00:05.551Z,21.6
2017-11-08T19:02:09.844Z,21.6
2017-11-08T19:04:05.598Z,21.6
2017-11-08T19:06:05.458Z,21.6
2017-11-08T19:08:05.852Z,21.6
2017-11-08T19:10:05.480Z,21.6
2017-11-08T19:12:07.810Z,21.6
2017-11-08T19:14:08.101Z,21.6
2017-11-08T19:16:04.796Z,21.6
2017-11-08T19:18:07.830Z,21.6
2017-11-08T19:20:05.606Z,21.6
2017-11-08T19:22:05.177Z,21.6
2017-11-08T19:24:05.629Z,21.6
2017-11-08T19:26:05.311Z,21.6
2017-11-08T19:28:05.009Z,21.7
2017-11-08T19:30:07.446Z,21.7
2017-11-08T19:32:05.169Z,21.7
2017-11-08T19:34:07.903Z,21.7
2017-11-08T19:36:05.204Z,21.7
2017-11-08T19:38:05.058Z,21.7
2017-11-08T19:40:04.804Z,21.6
2017-11-08T19:42:05.563Z,21.7
2017-11-08T19:44:07.841Z,21.6
2017-11-08T19:46:05.104Z,21.7
2017-11-08T19:48:07.404Z,21.7
2017-11-08T19:50:07.714Z,21.7
2017-11-08T19:52:08.026Z,21.7
2017-11-08T19:54:04.944Z,21.7
2017-11-08T19:56:04.804Z,21.7
2017-11-08T19:58:05.544Z,21.7
2017-11-08T20:00:05.358Z,21.7
2017-11-08T20:02:05.598Z,21.7
2017-11-08T20:04:07.363Z,21.7
2017-11-08T20:06:05.135Z,21.7
2017-11-08T20:08:05.486Z,21.7
2017-11-08T20:10:05.311Z,21.7
2017-11-08T20:12:05.014Z,21.7
2017-11-08T20:14:04.704Z,21.7
2017-11-08T20:16:07.445Z,21.7
2017-11-08T20:18:05.458Z,21.7
2017-11-08T20:20:05.180Z,21.7
2017-11-08T20:22:04.903Z,21.7
2017-11-08T20:24:05.762Z,21.7
2017-11-08T20:26:08.051Z,21.7
2017-11-08T20:28:05.291Z,21.7
2017-11-08T20:30:05.148Z,21.7
2017-11-08T20:32:07.398Z,21.7
2017-11-08T20:34:05.170Z,21.8
2017-11-08T20:36:09.957Z,21.7
2017-11-08T20:38:04.917Z,21.8
2017-11-08T20:40:04.693Z,21.8
2017-11-08T20:42:05.495Z,21.8
2017-11-08T20:44:07.735Z,21.8
2017-11-08T20:46:05.501Z,21.7
2017-11-08T20:48:05.765Z,21.8
2017-11-08T20:50:05.518Z,21.8
2017-11-08T20:52:05.253Z,21.8
2017-11-08T20:54:07.567Z,21.8
2017-11-08T20:56:05.339Z,21.8
2017-11-08T20:58:08.110Z,21.8
2017-11-08T21:00:04.998Z,21.8
2017-11-08T21:02:04.704Z,21.8
2017-11-08T21:04:05.627Z,21.8
2017-11-08T21:06:08.109Z,21.8
2017-11-08T21:08:07.751Z,21.8
2017-11-08T21:10:05.001Z,21.8
2017-11-08T21:12:07.257Z,21.8
2017-11-08T21:14:05.059Z,21.8
2017-11-08T21:16:07.390Z,21.8
2017-11-08T21:18:07.487Z,21.8
2017-11-08T21:20:05.217Z,21.8
2017-11-08T21:22:05.056Z,21.8
2017-11-08T21:24:04.904Z,21.8
2017-11-08T21:26:05.022Z,21.8
2017-11-08T21:28:05.008Z,21.8
2017-11-08T21:30:07.538Z,21.8
2017-11-08T21:32:05.553Z,21.8
2017-11-08T21:34:05.301Z,21.8
2017-11-08T21:36:05.078Z,21.8
2017-11-08T21:38:05.324Z,21.8
2017-11-08T21:40:07.535Z,21.9
2017-11-08T21:42:12.820Z,21.9
2017-11-08T21:44:04.807Z,21.9
2017-11-08T21:46:05.583Z,21.9
2017-11-08T21:48:05.543Z,21.9
2017-11-08T21:50:10.487Z,21.9
2017-11-08T21:52:07.713Z,21.9
2017-11-08T21:54:05.475Z,21.9
2017-11-08T21:56:07.773Z,21.9
2017-11-08T21:58:07.239Z,21.9
2017-11-08T22:00:05.052Z,21.9
2017-11-08T22:02:04.862Z,21.9
2017-11-08T22:04:04.796Z,21.9
2017-11-08T22:06:05.140Z,21.9
2017-11-08T22:08:04.878Z,21.9
2017-11-08T22:10:05.622Z,21.9
2017-11-08T22:12:12.430Z,21.9
2017-11-08T22:14:10.227Z,21.9
2017-11-08T22:16:05.016Z,21.9
2017-11-08T22:18:04.966Z,21.9
2017-11-08T22:20:04.718Z,21.9
2017-11-08T22:22:04.690Z,21.9
2017-11-08T22:24:06.314Z,21.9
2017-11-08T22:26:05.211Z,21.9
2017-11-08T22:28:05.164Z,21.9
2017-11-08T22:30:04.696Z,22
2017-11-08T22:32:05.122Z,21.9
2017-11-08T22:34:05.799Z,22
2017-11-08T22:36:04.823Z,22
2017-11-08T22:38:05.602Z,22
2017-11-08T22:40:07.816Z,22
2017-11-08T22:42:04.981Z,22
2017-11-08T22:44:07.493Z,22
2017-11-08T22:46:05.272Z,21.9
2017-11-08T22:48:05.081Z,22
2017-11-08T22:50:05.339Z,22
2017-11-08T22:52:05.135Z,22
2017-11-08T22:54:04.909Z,22
2017-11-08T22:56:10.573Z,22
2017-11-08T22:58:05.282Z,22
2017-11-08T23:00:05.382Z,22
2017-11-08T23:02:05.287Z,22
2017-11-08T23:04:06.317Z,22
2017-11-08T23:06:07.440Z,22
2017-11-08T23:08:04.790Z,22
2017-11-08T23:10:05.479Z,22
2017-11-08T23:12:13.243Z,22
2017-11-08T23:14:05.290Z,22
2017-11-08T23:16:10.594Z,22
2017-11-08T23:18:05.292Z,22
2017-11-08T23:20:08.316Z,22
2017-11-08T23:22:05.253Z,22
2017-11-08T23:24:05.005Z,21.9
2017-11-08T23:26:04.653Z,21.9
2017-11-08T23:28:05.416Z,22
2017-11-08T23:30:05.513Z,21.9
2017-11-08T23:32:07.858Z,21.9
2017-11-08T23:34:04.680Z,21.9
2017-11-08T23:36:05.681Z,21.9
2017-11-08T23:38:05.606Z,21.9
2017-11-08T23:40:05.398Z,21.9
2017-11-08T23:42:07.936Z,21.9
2017-11-08T23:44:04.775Z,21.9
2017-11-08T23:46:04.758Z,21.9
2017-11-08T23:48:07.379Z,21.9
2017-11-08T23:50:05.375Z,21.9
2017-11-08T23:52:07.782Z,21.9
2017-11-08T23:54:08.042Z,21.9
2017-11-08T23:56:07.540Z,21.9
2017-11-08T23:58:05.358Z,21.9
